Time;durP1;ratioP1;P1;durP2;ratioP2;P2;SDS_P1;SDS_P2;PMS_P1;PMS_P2;Temp;Humidity;BMP_temperature;BMP_pressure;BME280_temperature;BME280_humidity;BME280_pressure;Samples;Min_cycle;Max_cycle;Signal;HPM_P1;HPM_P2
2022/09/02 00:00:58;;;;;;;1.27;0.30;;;14.50;99.90;;;;;;4949807;28;20838;-78
2022/09/02 00:03:24;;;;;;;0.40;0.30;;;14.50;99.90;;;;;;4965770;28;20515;-77
2022/09/02 00:05:50;;;;;;;2.60;0.40;;;14.40;99.90;;;;;;4933777;28;20051;-77
2022/09/02 00:08:15;;;;;;;3.13;0.35;;;14.40;99.90;;;;;;4950568;28;20054;-78
2022/09/02 00:10:43;;;;;;;0.70;0.20;;;14.30;99.90;;;;;;4964313;28;20034;-78
2022/09/02 00:13:10;;;;;;;3.42;0.30;;;14.30;99.90;;;;;;4934206;28;20085;-77
2022/09/02 00:15:36;;;;;;;4.53;0.30;;;14.20;99.90;;;;;;4951270;28;20066;-77
2022/09/02 00:18:03;;;;;;;3.92;0.82;;;14.30;99.90;;;;;;4965805;28;20496;-78
2022/09/02 00:20:30;;;;;;;2.47;0.38;;;14.20;99.90;;;;;;4947494;28;20074;-78
2022/09/02 00:22:55;;;;;;;3.72;0.40;;;14.20;99.90;;;;;;4948292;28;20047;-78
2022/09/02 00:25:22;;;;;;;2.78;0.20;;;14.20;99.90;;;;;;4962149;28;20054;-77
2022/09/02 00:27:48;;;;;;;2.35;0.32;;;14.20;99.90;;;;;;4963190;28;20058;-80
2022/09/02 00:30:14;;;;;;;2.05;0.30;;;14.10;99.90;;;;;;4951536;28;20078;-80
2022/09/02 00:32:40;;;;;;;1.40;0.28;;;14.20;99.90;;;;;;4950494;28;20074;-77
2022/09/02 00:35:07;;;;;;;2.65;0.60;;;14.20;99.90;;;;;;4933851;28;20043;-78
2022/09/02 00:37:32;;;;;;;0.93;0.20;;;14.10;99.90;;;;;;4931015;28;20427;-77
2022/09/02 00:39:58;;;;;;;0.68;0.20;;;14.10;99.90;;;;;;4950793;28;20039;-78
2022/09/02 00:42:24;;;;;;;2.17;0.25;;;14.10;99.90;;;;;;4963587;28;20504;-78
2022/09/02 00:44:51;;;;;;;1.63;0.30;;;14.10;99.90;;;;;;4934776;28;20106;-78
2022/09/02 00:47:17;;;;;;;1.00;0.22;;;14.10;99.90;;;;;;4951519;28;20083;-79
2022/09/02 00:49:47;;;;;;;1.15;0.28;;;14.20;99.90;;;;;;4932632;28;20093;-78
2022/09/02 00:52:41;;;;;;;1.15;0.20;;;14.20;99.90;;;;;;4964023;28;20470;-77
2022/09/02 00:55:41;;;;;;;0.63;0.30;;;14.20;99.90;;;;;;4947766;28;20087;-78
2022/09/02 00:58:21;;;;;;;2.88;0.70;;;14.20;99.90;;;;;;4928076;28;20058;-78
2022/09/02 01:00:51;;;;;;;2.03;0.30;;;14.20;99.90;;;;;;4961251;28;20534;-78
2022/09/02 01:03:19;;;;;;;1.60;0.40;;;14.30;99.90;;;;;;4963697;28;20053;-77
2022/09/02 01:05:48;;;;;;;2.72;0.30;;;14.30;99.90;;;;;;4965802;28;20043;-77
2022/09/02 01:08:23;;;;;;;1.75;0.28;;;14.40;99.90;;;;;;4934480;28;20043;-79
2022/09/02 01:10:51;;;;;;;0.73;0.30;;;14.40;99.90;;;;;;4934535;28;20138;-78
2022/09/02 01:13:19;;;;;;;2.50;0.40;;;14.40;99.90;;;;;;4949329;28;20563;-77
2022/09/02 01:15:49;;;;;;;1.70;0.40;;;14.40;99.90;;;;;;4962687;28;20039;-79
2022/09/02 01:18:23;;;;;;;2.88;0.40;;;14.40;99.90;;;;;;4961609;28;20054;-78
2022/09/02 01:20:49;;;;;;;1.42;0.47;;;14.40;99.90;;;;;;4962545;28;20046;-79
2022/09/02 01:23:16;;;;;;;1.00;0.30;;;14.40;99.90;;;;;;4931785;28;20042;-78
2022/09/02 01:25:42;;;;;;;1.80;0.30;;;14.40;99.90;;;;;;4962811;28;20039;-78
2022/09/02 01:28:10;;;;;;;1.55;0.40;;;14.40;99.90;;;;;;4961564;28;20171;-77
2022/09/02 01:30:40;;;;;;;4.47;0.60;;;14.40;99.90;;;;;;4963201;28;20062;-80
2022/09/02 01:33:06;;;;;;;3.80;0.32;;;14.40;99.90;;;;;;4963118;28;20065;-78
2022/09/02 01:35:32;;;;;;;0.70;0.20;;;14.40;99.90;;;;;;4949112;28;20035;-78
2022/09/02 01:38:00;;;;;;;2.05;0.40;;;14.40;99.90;;;;;;4961163;28;20534;-78
2022/09/02 01:40:27;;;;;;;1.20;0.32;;;14.30;99.90;;;;;;4949626;28;20097;-78
2022/09/02 01:42:58;;;;;;;0.57;0.20;;;14.30;99.90;;;;;;4935591;28;20043;-79
2022/09/02 01:45:24;;;;;;;2.25;0.57;;;14.30;99.90;;;;;;4952252;28;20035;-77
2022/09/02 01:47:51;;;;;;;1.75;0.40;;;14.30;99.90;;;;;;4951587;28;20034;-77
2022/09/02 01:50:17;;;;;;;1.85;0.30;;;14.30;99.90;;;;;;4933659;28;20039;-78
2022/09/02 01:52:43;;;;;;;2.42;0.32;;;14.20;99.90;;;;;;4960318;28;20591;-77
2022/09/02 01:55:09;;;;;;;2.78;0.28;;;14.20;99.90;;;;;;4963054;28;20050;-77
2022/09/02 01:57:34;;;;;;;0.68;0.20;;;14.20;99.90;;;;;;4966695;28;20423;-77
2022/09/02 02:00:00;;;;;;;2.45;0.30;;;14.10;99.90;;;;;;4952493;28;20047;-78
2022/09/02 02:02:27;;;;;;;1.13;0.50;;;14.10;99.90;;;;;;4967638;28;20126;-78
2022/09/02 02:04:53;;;;;;;0.50;0.30;;;14.10;99.90;;;;;;4967036;28;21881;-77
2022/09/02 02:07:21;;;;;;;4.00;0.30;;;14.10;99.90;;;;;;4953934;28;20078;-77
2022/09/02 02:09:47;;;;;;;3.13;0.60;;;14.10;99.90;;;;;;4951601;28;20086;-80
2022/09/02 02:12:14;;;;;;;1.23;0.32;;;14.00;99.90;;;;;;4955407;28;20495;-80
2022/09/02 02:14:40;;;;;;;1.85;0.30;;;14.00;99.90;;;;;;4957212;28;20042;-77
2022/09/02 02:17:05;;;;;;;2.55;0.40;;;13.90;99.90;;;;;;4956937;28;20043;-80
2022/09/02 02:19:32;;;;;;;3.92;0.50;;;13.90;99.90;;;;;;4952112;28;20435;-80
2022/09/02 02:21:58;;;;;;;0.65;0.30;;;13.80;99.90;;;;;;4941500;28;20102;-79
2022/09/02 02:24:24;;;;;;;1.45;0.45;;;13.80;99.90;;;;;;4953832;28;20047;-78
2022/09/02 02:26:49;;;;;;;0.73;0.38;;;13.80;99.90;;;;;;4935547;29;20043;-77
2022/09/02 02:29:15;;;;;;;1.60;0.40;;;13.80;99.90;;;;;;4932906;28;20047;-78
2022/09/02 02:31:41;;;;;;;1.67;0.40;;;13.70;99.90;;;;;;4969003;28;20077;-79
2022/09/02 02:34:09;;;;;;;2.78;0.55;;;13.70;99.90;;;;;;4938614;28;20093;-78
2022/09/02 02:36:35;;;;;;;2.85;0.30;;;13.80;99.90;;;;;;4947932;28;20045;-78
2022/09/02 02:39:01;;;;;;;1.20;0.50;;;13.70;99.90;;;;;;4950852;28;20035;-81
2022/09/02 02:41:28;;;;;;;2.35;0.40;;;13.70;99.90;;;;;;4963744;28;20036;-77
2022/09/02 02:43:54;;;;;;;1.92;0.40;;;13.70;99.90;;;;;;4966100;28;20046;-77
2022/09/02 02:46:19;;;;;;;2.75;0.50;;;13.60;99.90;;;;;;4937730;28;20087;-77
2022/09/02 02:48:46;;;;;;;3.60;0.32;;;13.60;99.90;;;;;;4933321;28;20403;-81
2022/09/02 02:51:11;;;;;;;2.70;0.40;;;13.50;99.90;;;;;;4953808;28;20133;-79
2022/09/02 02:53:37;;;;;;;2.15;0.40;;;13.50;99.90;;;;;;4952546;28;20059;-80
2022/09/02 02:56:04;;;;;;;2.47;0.40;;;13.50;99.90;;;;;;4947767;28;20047;-80
2022/09/02 02:58:30;;;;;;;0.98;0.35;;;13.50;99.90;;;;;;4962802;28;20062;-76
2022/09/02 03:00:57;;;;;;;2.85;0.30;;;13.50;99.90;;;;;;4952530;28;20361;-80
2022/09/02 03:03:23;;;;;;;5.68;0.80;;;13.50;99.90;;;;;;4967742;28;20126;-80
2022/09/02 03:05:49;;;;;;;3.67;0.63;;;13.40;99.90;;;;;;4966086;28;20146;-80
2022/09/02 03:08:17;;;;;;;3.30;0.45;;;13.40;99.90;;;;;;4950427;28;20051;-81
2022/09/02 03:10:43;;;;;;;1.63;0.50;;;13.40;99.90;;;;;;4934119;28;20150;-80
2022/09/02 03:13:10;;;;;;;5.60;0.75;;;13.40;99.90;;;;;;4965266;28;20134;-80
2022/09/02 03:15:37;;;;;;;1.13;0.40;;;13.40;99.90;;;;;;4936575;28;20431;-80
2022/09/02 03:18:04;;;;;;;4.75;0.38;;;13.40;99.90;;;;;;4951047;28;20050;-80
2022/09/02 03:20:30;;;;;;;3.30;0.40;;;13.40;99.90;;;;;;4953155;28;20046;-80
2022/09/02 03:22:57;;;;;;;2.67;0.40;;;13.40;99.90;;;;;;4933322;28;20043;-80
2022/09/02 03:25:25;;;;;;;3.88;0.70;;;13.40;99.90;;;;;;4951434;28;20043;-80
2022/09/02 03:27:51;;;;;;;1.33;0.30;;;13.40;99.90;;;;;;4952092;28;20384;-80
2022/09/02 03:30:20;;;;;;;1.10;0.30;;;13.30;99.90;;;;;;4936578;28;20046;-80
2022/09/02 03:32:46;;;;;;;1.55;0.55;;;13.30;99.90;;;;;;4946927;28;20058;-80
2022/09/02 03:35:16;;;;;;;0.57;0.30;;;13.30;99.90;;;;;;4964902;28;20047;-81
2022/09/02 03:37:42;;;;;;;1.63;0.43;;;13.30;99.90;;;;;;4966655;28;20061;-77
2022/09/02 03:40:11;;;;;;;3.13;0.70;;;13.20;99.90;;;;;;4931190;28;20043;-81
2022/09/02 03:42:37;;;;;;;1.38;0.65;;;13.30;99.90;;;;;;4933076;28;20045;-77
2022/09/02 03:45:05;;;;;;;1.30;0.50;;;13.20;99.90;;;;;;4967735;28;20404;-79
2022/09/02 03:47:30;;;;;;;4.20;0.43;;;13.20;99.90;;;;;;4953084;28;20039;-80
2022/09/02 03:49:56;;;;;;;1.85;0.45;;;13.20;99.90;;;;;;4949111;28;20043;-80
2022/09/02 03:52:22;;;;;;;3.17;0.60;;;13.20;99.90;;;;;;4936474;28;20043;-80
2022/09/02 03:54:48;;;;;;;5.30;0.50;;;13.10;99.90;;;;;;4930399;28;20054;-80
2022/09/02 03:57:14;;;;;;;0.60;0.30;;;13.20;99.90;;;;;;4965588;28;20043;-80
2022/09/02 03:59:40;;;;;;;2.00;0.60;;;13.10;99.90;;;;;;4963269;28;20043;-79
2022/09/02 04:02:06;;;;;;;2.70;0.38;;;13.10;99.90;;;;;;4916605;28;20061;-78
2022/09/02 04:04:32;;;;;;;2.15;0.50;;;13.10;99.90;;;;;;4945458;28;20058;-80
2022/09/02 04:06:57;;;;;;;6.07;0.70;;;13.10;99.90;;;;;;4950142;28;20051;-79
2022/09/02 04:09:23;;;;;;;3.53;0.50;;;13.00;99.90;;;;;;4964179;28;20050;-79
2022/09/02 04:11:49;;;;;;;3.20;0.40;;;13.00;99.90;;;;;;4951645;28;20125;-80
2022/09/02 04:14:15;;;;;;;3.58;1.00;;;13.00;99.90;;;;;;4933425;28;20039;-79
2022/09/02 04:16:40;;;;;;;0.95;0.40;;;13.00;99.90;;;;;;4963048;28;20039;-80
2022/09/02 04:19:08;;;;;;;3.65;0.50;;;12.90;99.90;;;;;;4950719;28;20058;-78
2022/09/02 04:21:37;;;;;;;3.38;0.55;;;13.00;99.90;;;;;;4967317;28;20053;-79
2022/09/02 04:24:05;;;;;;;1.02;0.60;;;13.00;99.90;;;;;;4960845;28;20488;-78
2022/09/02 04:26:30;;;;;;;0.70;0.30;;;13.00;99.90;;;;;;4961715;28;20142;-78
2022/09/02 04:28:56;;;;;;;1.42;0.40;;;12.90;99.90;;;;;;4933336;28;20134;-79
2022/09/02 04:31:28;;;;;;;5.93;1.08;;;12.90;99.90;;;;;;4950118;28;20047;-78
2022/09/02 04:33:55;;;;;;;3.65;0.75;;;12.80;99.90;;;;;;4937641;28;20058;-80
2022/09/02 04:36:21;;;;;;;1.23;0.35;;;12.90;99.90;;;;;;4953015;28;20590;-75
2022/09/02 04:38:47;;;;;;;1.15;0.55;;;12.80;99.90;;;;;;4932538;28;20071;-79
2022/09/02 04:41:16;;;;;;;1.30;0.40;;;12.80;99.90;;;;;;4959136;28;20732;-79
2022/09/02 04:43:42;;;;;;;1.17;0.50;;;12.80;99.90;;;;;;4946971;28;20054;-80
2022/09/02 04:46:11;;;;;;;5.25;0.40;;;12.70;99.90;;;;;;4946143;28;20103;-79
2022/09/02 04:48:37;;;;;;;1.15;0.40;;;12.70;99.90;;;;;;4931064;28;20039;-80
2022/09/02 04:51:25;;;;;;;2.58;0.52;;;12.70;99.90;;;;;;4947065;28;20054;-79
2022/09/02 04:53:52;;;;;;;8.05;0.57;;;12.70;99.90;;;;;;4931827;28;20102;-80
2022/09/02 04:56:30;;;;;;;8.00;0.85;;;12.70;99.90;;;;;;4945619;28;20043;-80
2022/09/02 04:58:56;;;;;;;4.72;1.08;;;12.70;99.90;;;;;;4941513;28;20042;-78
2022/09/02 05:01:25;;;;;;;6.00;0.60;;;12.70;99.90;;;;;;4963680;28;20042;-82
2022/09/02 05:03:52;;;;;;;5.47;0.98;;;12.70;99.90;;;;;;4966509;28;20099;-80
2022/09/02 05:06:21;;;;;;;1.92;0.60;;;12.70;99.90;;;;;;4965655;28;20066;-80
2022/09/02 05:08:47;;;;;;;1.75;0.50;;;12.70;99.90;;;;;;4944600;28;20078;-79
2022/09/02 05:11:22;;;;;;;2.55;0.60;;;12.80;99.90;;;;;;4966903;28;20062;-80
2022/09/02 05:13:52;;;;;;;4.13;0.98;;;12.80;99.90;;;;;;4930021;29;20138;-80
2022/09/02 05:16:21;;;;;;;2.85;0.55;;;12.90;99.90;;;;;;4965947;28;20098;-78
2022/09/02 05:18:47;;;;;;;6.00;0.85;;;12.90;99.90;;;;;;4961190;28;20130;-77
2022/09/02 05:21:13;;;;;;;6.05;1.27;;;13.10;99.90;;;;;;4964996;28;20047;-79
2022/09/02 05:23:39;;;;;;;2.20;0.60;;;13.10;99.90;;;;;;4948766;28;20051;-77
2022/09/02 05:26:06;;;;;;;1.08;0.50;;;13.70;99.90;;;;;;4951836;28;20066;-79
2022/09/02 05:28:33;;;;;;;1.80;0.40;;;14.70;99.90;;;;;;4937057;28;20042;-78
2022/09/02 05:31:04;;;;;;;4.30;0.45;;;15.70;99.90;;;;;;4937328;28;20043;-82
2022/09/02 05:33:31;;;;;;;1.08;0.30;;;16.80;99.90;;;;;;4935433;28;20053;-77
2022/09/02 05:35:57;;;;;;;3.13;0.32;;;17.30;99.90;;;;;;4968160;28;20069;-78
2022/09/02 05:38:24;;;;;;;2.88;0.40;;;17.70;99.90;;;;;;4956945;28;20479;-79
2022/09/02 05:40:49;;;;;;;0.77;0.40;;;17.80;99.70;;;;;;4969780;28;20043;-80
2022/09/02 05:43:15;;;;;;;1.65;0.63;;;17.50;99.50;;;;;;4936798;28;20122;-81
2022/09/02 05:45:41;;;;;;;5.32;0.68;;;17.00;99.80;;;;;;4937597;28;20058;-81
2022/09/02 05:49:05;;;;;;;4.43;0.50;;;16.90;99.90;;;;;;4937146;29;20054;-81
2022/09/02 05:50:53;;;;;;;0.90;0.30;;;16.90;99.90;;;;;;4948838;28;20046;-83
2022/09/02 05:53:18;;;;;;;3.10;0.40;;;16.70;99.90;;;;;;4950453;28;20074;-82
2022/09/02 05:55:44;;;;;;;1.30;0.55;;;17.00;99.90;;;;;;4965174;28;20074;-81
2022/09/02 05:58:09;;;;;;;3.17;0.50;;;17.00;99.80;;;;;;4983232;28;20047;-83
2022/09/02 06:00:38;;;;;;;1.10;0.30;;;17.60;99.90;;;;;;4981313;28;20047;-79
2022/09/02 06:03:04;;;;;;;1.05;0.30;;;17.80;99.00;;;;;;4940763;29;20051;-80
2022/09/02 06:05:29;;;;;;;2.58;0.38;;;18.40;99.00;;;;;;4938039;28;20054;-80
2022/09/02 06:07:55;;;;;;;4.90;0.65;;;19.30;98.10;;;;;;4953917;28;20082;-78
2022/09/02 06:10:20;;;;;;;3.65;0.50;;;20.20;97.50;;;;;;4955017;28;20043;-79
2022/09/02 06:12:46;;;;;;;4.68;0.40;;;20.90;96.30;;;;;;4960823;28;20038;-81
2022/09/02 06:15:12;;;;;;;2.33;0.35;;;21.70;95.30;;;;;;4929719;28;20427;-83
2022/09/02 06:17:37;;;;;;;2.55;0.45;;;22.50;94.60;;;;;;4929084;28;20047;-83
2022/09/02 06:20:04;;;;;;;1.58;0.45;;;22.70;93.20;;;;;;4963602;28;20054;-80
2022/09/02 06:22:29;;;;;;;1.73;0.40;;;22.90;92.30;;;;;;4947048;28;20070;-79
2022/09/02 06:24:55;;;;;;;1.60;0.30;;;23.60;92.40;;;;;;4958239;28;20102;-79
2022/09/02 06:27:20;;;;;;;1.33;0.57;;;23.60;91.30;;;;;;4928286;28;20047;-78
2022/09/02 06:29:46;;;;;;;2.05;0.98;;;23.90;90.70;;;;;;4930960;28;20475;-79
2022/09/02 06:32:12;;;;;;;3.17;0.60;;;24.10;90.80;;;;;;4962469;28;20415;-83
2022/09/02 06:34:38;;;;;;;1.17;0.40;;;24.80;90.60;;;;;;4946321;28;20395;-81
2022/09/02 06:37:04;;;;;;;3.25;0.43;;;25.20;90.20;;;;;;4947116;28;20043;-79
2022/09/02 06:39:29;;;;;;;3.33;0.50;;;25.50;89.20;;;;;;4930601;28;20078;-83
2022/09/02 06:41:55;;;;;;;2.30;0.40;;;26.10;86.90;;;;;;4930871;28;20055;-81
2022/09/02 06:44:21;;;;;;;9.30;0.68;;;26.20;87.10;;;;;;4960039;28;20055;-80
2022/09/02 06:46:52;;;;;;;4.20;0.65;;;26.50;85.90;;;;;;4946644;28;20038;-80
2022/09/02 06:49:18;;;;;;;3.33;0.70;;;27.20;84.60;;;;;;4958994;28;20058;-79
2022/09/02 06:51:46;;;;;;;2.20;0.45;;;27.20;82.50;;;;;;4961197;28;20055;-81
2022/09/02 06:54:15;;;;;;;2.47;0.40;;;27.40;81.70;;;;;;4959790;28;20699;-82
2022/09/02 06:56:42;;;;;;;2.45;0.70;;;27.60;81.00;;;;;;4930195;28;20039;-80
2022/09/02 06:59:08;;;;;;;1.45;0.77;;;27.20;80.20;;;;;;4960399;28;20161;-84
2022/09/02 07:01:35;;;;;;;0.90;0.60;;;27.20;79.80;;;;;;4960484;28;20119;-81
2022/09/02 07:06:49;;;;;;;1.00;0.60;;;27.40;80.20;;;;;;4947121;28;20078;-77
2022/09/02 07:09:18;;;;;;;1.48;0.65;;;26.40;79.50;;;;;;4927158;28;20488;-78
2022/09/02 07:11:48;;;;;;;5.32;0.60;;;25.80;80.20;;;;;;4961490;28;20043;-78
2022/09/02 07:14:16;;;;;;;2.78;0.75;;;24.90;81.90;;;;;;4946685;28;20047;-76
2022/09/02 07:16:45;;;;;;;3.00;0.50;;;23.90;82.20;;;;;;4932352;28;20047;-79
2022/09/02 07:19:12;;;;;;;2.30;1.20;;;23.30;83.60;;;;;;4938867;28;20075;-80
2022/09/02 07:21:39;;;;;;;3.15;0.70;;;22.90;85.30;;;;;;4961197;28;20359;-80
2022/09/02 07:24:05;;;;;;;5.82;0.50;;;22.50;85.90;;;;;;4947600;28;20129;-79
2022/09/02 07:26:31;;;;;;;2.17;0.60;;;22.00;86.50;;;;;;4945028;28;20779;-77
2022/09/02 07:28:57;;;;;;;7.60;0.75;;;21.70;87.60;;;;;;4944922;28;20058;-76
2022/09/02 07:31:23;;;;;;;6.30;0.70;;;21.30;88.90;;;;;;4922505;28;20122;-80
2022/09/02 07:33:49;;;;;;;2.75;0.50;;;21.00;89.70;;;;;;4957305;28;20102;-78
2022/09/02 07:36:15;;;;;;;8.00;0.90;;;20.70;90.10;;;;;;4946102;28;20057;-78
2022/09/02 07:38:41;;;;;;;6.32;0.85;;;20.40;90.60;;;;;;4939055;28;20089;-76
2022/09/02 07:41:09;;;;;;;5.07;0.75;;;20.20;91.00;;;;;;4957951;28;20043;-80
2022/09/02 07:43:36;;;;;;;2.95;0.60;;;20.00;91.50;;;;;;4928817;28;20166;-82
2022/09/02 07:46:04;;;;;;;7.40;1.23;;;19.90;91.70;;;;;;4924036;28;20073;-79
2022/09/02 07:48:31;;;;;;;6.90;0.60;;;19.90;92.10;;;;;;4939793;28;20082;-79
2022/09/02 07:50:57;;;;;;;4.40;0.50;;;19.90;92.00;;;;;;4924328;28;20079;-78
2022/09/02 07:53:24;;;;;;;10.68;1.25;;;19.80;92.10;;;;;;4922460;28;20420;-77
2022/09/02 07:55:50;;;;;;;6.47;0.73;;;19.90;92.40;;;;;;4957154;28;20139;-78
2022/09/02 07:58:18;;;;;;;4.07;0.70;;;20.00;92.30;;;;;;4930502;28;20126;-76
2022/09/02 08:00:45;;;;;;;4.90;0.60;;;20.10;92.50;;;;;;4916547;28;20043;-81
2022/09/02 08:03:12;;;;;;;7.70;0.52;;;20.30;92.50;;;;;;4952333;28;20094;-80
2022/09/02 08:05:39;;;;;;;6.03;0.95;;;20.50;91.80;;;;;;4958095;28;20058;-79
2022/09/02 08:08:06;;;;;;;5.47;0.77;;;20.50;91.80;;;;;;4939622;28;20050;-79
2022/09/02 08:10:33;;;;;;;11.20;1.10;;;20.60;92.20;;;;;;4935923;28;20063;-77
2022/09/02 08:12:59;;;;;;;7.65;0.57;;;20.80;92.10;;;;;;4922871;28;20051;-79
2022/09/02 08:15:27;;;;;;;9.80;0.90;;;21.00;91.90;;;;;;4941342;28;20054;-78
2022/09/02 08:17:54;;;;;;;6.07;0.75;;;21.20;91.80;;;;;;4927368;28;20054;-79
2022/09/02 08:20:19;;;;;;;2.05;0.50;;;21.30;91.30;;;;;;4937936;28;20051;-78
2022/09/02 08:22:45;;;;;;;10.82;1.42;;;21.50;91.30;;;;;;4894644;28;20047;-78
2022/09/02 08:25:11;;;;;;;9.25;0.73;;;21.60;91.20;;;;;;4921892;28;20057;-76
2022/09/02 08:27:37;;;;;;;1.83;0.50;;;21.70;91.10;;;;;;4924219;28;20035;-80
2022/09/02 08:30:04;;;;;;;5.22;0.60;;;21.60;91.00;;;;;;4920941;28;20082;-77
2022/09/02 08:32:31;;;;;;;4.75;0.70;;;21.70;90.60;;;;;;4920232;28;20042;-77
2022/09/02 08:35:01;;;;;;;3.30;0.77;;;21.80;90.70;;;;;;4936071;28;21205;-77
2022/09/02 08:37:27;;;;;;;1.45;0.43;;;21.80;90.40;;;;;;4939538;28;20058;-76
2022/09/02 08:39:53;;;;;;;6.80;0.50;;;22.10;90.70;;;;;;4951020;28;20087;-78
2022/09/02 08:42:29;;;;;;;2.38;0.50;;;22.30;91.00;;;;;;4917363;28;20047;-77
2022/09/02 08:45:03;;;;;;;4.57;0.50;;;22.60;90.20;;;;;;4950241;28;20053;-77
2022/09/02 08:47:32;;;;;;;1.02;0.60;;;22.70;90.00;;;;;;4950875;28;20055;-77
2022/09/02 08:50:08;;;;;;;2.10;0.30;;;22.80;90.00;;;;;;4949176;28;20582;-77
2022/09/02 08:52:56;;;;;;;3.67;0.57;;;22.90;89.30;;;;;;4921833;29;20043;-78
2022/09/02 08:55:27;;;;;;;2.13;0.50;;;22.90;89.10;;;;;;4956225;28;20043;-78
2022/09/02 08:57:55;;;;;;;2.50;0.75;;;22.90;88.00;;;;;;4950196;28;20047;-77
2022/09/02 09:00:21;;;;;;;1.65;0.45;;;23.10;89.00;;;;;;4917165;29;20059;-78
2022/09/02 09:02:55;;;;;;;0.85;0.45;;;23.20;88.60;;;;;;4950011;28;20039;-79
2022/09/02 09:05:52;;;;;;;4.15;0.50;;;23.40;88.50;;;;;;4955584;28;20055;-78
2022/09/02 09:08:35;;;;;;;6.68;0.73;;;23.30;86.30;;;;;;4944384;28;20118;-78
2022/09/02 09:11:03;;;;;;;4.78;0.75;;;23.30;86.50;;;;;;4956576;28;20050;-77
2022/09/02 09:13:43;;;;;;;6.75;0.85;;;23.20;87.10;;;;;;4956750;28;20043;-76
2022/09/02 09:16:41;;;;;;;0.90;0.52;;;23.20;87.10;;;;;;4958193;28;20134;-82
2022/09/02 09:19:10;;;;;;;6.57;0.73;;;23.10;86.60;;;;;;4906169;29;20062;-81
2022/09/02 09:21:36;;;;;;;4.07;0.40;;;23.20;87.10;;;;;;4957656;28;20070;-80
2022/09/02 09:24:09;;;;;;;4.80;0.43;;;23.30;85.20;;;;;;4938886;28;20158;-78
2022/09/02 09:26:39;;;;;;;1.40;0.40;;;23.40;84.20;;;;;;4960399;28;20043;-77
2022/09/02 09:29:05;;;;;;;3.78;0.50;;;23.40;84.30;;;;;;4958510;28;20134;-80
2022/09/02 09:31:34;;;;;;;1.63;0.40;;;23.40;84.70;;;;;;4945562;28;20872;-78
2022/09/02 09:34:08;;;;;;;2.65;0.47;;;23.50;84.90;;;;;;4946451;28;20059;-79
2022/09/02 09:36:40;;;;;;;5.25;0.80;;;23.40;84.70;;;;;;4964317;28;20057;-77
2022/09/02 09:39:26;;;;;;;10.43;0.60;;;23.40;85.30;;;;;;4962353;28;20622;-76
2022/09/02 09:41:54;;;;;;;3.88;0.70;;;23.50;83.70;;;;;;4958555;28;20117;-77
2022/09/02 09:44:36;;;;;;;6.18;0.63;;;23.50;84.10;;;;;;4922238;29;20570;-80
2022/09/02 09:47:24;;;;;;;2.90;0.38;;;23.50;84.10;;;;;;4925185;29;20051;-77
2022/09/02 09:50:11;;;;;;;16.42;0.77;;;23.60;82.40;;;;;;4956016;28;20062;-77
2022/09/02 09:52:37;;;;;;;3.33;0.30;;;23.40;80.90;;;;;;4958161;28;20043;-81
2022/09/02 09:55:13;;;;;;;2.30;0.55;;;23.50;81.40;;;;;;4938858;28;20106;-80
2022/09/02 09:57:42;;;;;;;2.67;0.50;;;23.60;81.90;;;;;;4943658;28;20039;-78
2022/09/02 10:00:20;;;;;;;4.15;0.60;;;23.70;81.00;;;;;;4926655;29;20146;-83
2022/09/02 10:02:52;;;;;;;7.03;0.68;;;23.50;80.00;;;;;;4905124;29;20035;-77
2022/09/02 10:05:23;;;;;;;2.15;0.30;;;23.60;81.90;;;;;;4956735;28;20058;-80
2022/09/02 10:08:12;;;;;;;2.75;0.60;;;23.90;80.30;;;;;;4950976;28;20046;-77
2022/09/02 10:10:38;;;;;;;5.72;0.63;;;23.60;79.70;;;;;;4921797;29;20088;-79
2022/09/02 10:13:22;;;;;;;3.17;0.50;;;23.60;78.40;;;;;;4955080;28;20785;-78
2022/09/02 10:16:11;;;;;;;6.40;0.55;;;24.00;79.40;;;;;;4942114;28;20381;-77
2022/09/02 10:18:48;;;;;;;6.85;0.50;;;23.90;78.10;;;;;;4927730;28;20039;-79
2022/09/02 10:21:53;;;;;;;0.70;0.30;;;24.10;78.50;;;;;;4926379;29;20070;-77
2022/09/02 10:24:50;;;;;;;4.75;0.47;;;23.90;77.30;;;;;;4957639;28;20138;-78
2022/09/02 10:27:35;;;;;;;3.70;0.43;;;24.10;78.60;;;;;;4931952;28;20043;-83
2022/09/02 10:30:35;;;;;;;2.53;0.50;;;24.20;79.70;;;;;;4953744;28;20807;-77
2022/09/02 10:36:57;;;;;;;;;;;24.70;78.10;;;;;;4917449;28;20059;-77
2022/09/02 10:39:42;;;;;;;3.83;0.40;;;24.70;76.60;;;;;;4953162;28;19926;-78
2022/09/02 10:42:26;;;;;;;2.92;0.40;;;24.80;77.00;;;;;;4953419;28;20054;-79
2022/09/02 10:45:05;;;;;;;4.07;0.40;;;24.60;75.80;;;;;;4939099;28;20043;-78
2022/09/02 10:47:39;;;;;;;1.92;0.28;;;24.60;76.50;;;;;;4941809;28;20043;-78
2022/09/02 10:50:54;;;;;;;6.18;0.40;;;24.70;76.10;;;;;;4955749;28;20051;-78
2022/09/02 10:53:42;;;;;;;4.80;0.40;;;24.70;74.70;;;;;;4852405;29;20049;-77
2022/09/02 10:56:17;;;;;;;1.55;0.28;;;24.60;74.60;;;;;;4862084;29;20092;-81
2022/09/02 10:58:49;;;;;;;6.40;0.60;;;24.60;75.60;;;;;;4918777;28;20456;-79
2022/09/02 11:01:23;;;;;;;4.22;0.50;;;24.60;74.60;;;;;;4952636;28;20138;-78
2022/09/02 11:04:10;;;;;;;5.25;0.60;;;24.60;74.60;;;;;;4952933;28;20404;-81
2022/09/02 11:06:42;;;;;;;1.45;0.40;;;24.70;75.60;;;;;;4927072;28;20137;-79
2022/09/02 11:09:14;;;;;;;3.60;0.40;;;25.00;75.30;;;;;;4922884;28;20575;-81
2022/09/02 11:11:44;;;;;;;3.42;0.40;;;25.00;75.00;;;;;;4921815;28;20058;-84
2022/09/02 11:14:36;;;;;;;3.38;0.43;;;25.10;74.90;;;;;;4953550;28;20054;-79
2022/09/02 11:17:20;;;;;;;4.05;0.50;;;25.10;74.20;;;;;;4921097;28;20148;-79
2022/09/02 11:19:56;;;;;;;3.67;0.57;;;25.00;73.00;;;;;;4939968;28;20043;-80
2022/09/02 11:22:43;;;;;;;1.80;0.60;;;25.00;75.20;;;;;;4935928;28;20062;-80
2022/09/02 11:25:22;;;;;;;2.20;0.43;;;25.30;76.60;;;;;;4953547;28;20098;-78
2022/09/02 11:28:09;;;;;;;1.92;0.40;;;25.10;71.60;;;;;;4951347;28;20408;-79
2022/09/02 11:30:43;;;;;;;0.85;0.30;;;25.10;72.60;;;;;;4952027;28;20043;-77
2022/09/02 11:33:30;;;;;;;2.05;0.40;;;25.00;72.80;;;;;;4952241;28;20149;-77
2022/09/02 11:35:58;;;;;;;6.25;0.57;;;25.10;72.00;;;;;;4937127;28;20054;-79
2022/09/02 11:38:43;;;;;;;1.65;0.40;;;25.10;72.80;;;;;;4954609;28;20055;-79
2022/09/02 11:41:20;;;;;;;1.40;0.40;;;25.10;71.30;;;;;;4947266;28;20051;-78
2022/09/02 11:43:51;;;;;;;3.05;0.93;;;25.20;72.30;;;;;;4948966;28;20074;-78
2022/09/02 11:46:36;;;;;;;1.98;0.40;;;25.30;73.50;;;;;;4937649;28;20047;-78
2022/09/02 11:49:28;;;;;;;11.68;0.88;;;25.30;71.60;;;;;;4936872;28;20591;-79
2022/09/02 11:51:59;;;;;;;3.80;0.30;;;25.30;71.30;;;;;;4955327;28;20118;-79
2022/09/02 11:54:31;;;;;;;5.18;0.35;;;25.40;71.40;;;;;;4923457;28;20051;-78
2022/09/02 11:57:01;;;;;;;5.10;0.63;;;25.30;71.00;;;;;;4934255;28;20696;-79
2022/09/02 11:59:51;;;;;;;8.57;0.70;;;25.20;70.90;;;;;;4952431;28;20042;-78
2022/09/02 12:02:36;;;;;;;0.98;0.38;;;25.10;71.60;;;;;;4955253;28;20054;-79
2022/09/02 12:05:30;;;;;;;2.20;0.50;;;25.20;71.60;;;;;;4925989;28;20058;-79
2022/09/02 12:08:35;;;;;;;0.80;0.40;;;25.20;70.40;;;;;;4957959;28;20162;-78
2022/09/02 12:11:04;;;;;;;4.22;0.40;;;25.10;71.30;;;;;;4926763;28;20046;-79
2022/09/02 12:13:44;;;;;;;1.70;0.40;;;25.10;70.30;;;;;;4927382;28;20464;-79
2022/09/02 12:16:14;;;;;;;1.48;0.30;;;25.20;71.50;;;;;;4927139;28;20031;-79
2022/09/02 12:18:43;;;;;;;9.45;0.65;;;25.10;70.00;;;;;;4941500;28;20043;-77
2022/09/02 12:21:14;;;;;;;3.40;0.47;;;25.10;71.70;;;;;;4926750;28;20206;-78
2022/09/02 12:23:54;;;;;;;5.90;0.90;;;25.30;71.80;;;;;;4933052;28;20620;-77
2022/09/02 12:26:24;;;;;;;3.30;0.57;;;25.40;72.00;;;;;;4957824;28;20050;-77
2022/09/02 12:28:52;;;;;;;3.53;0.60;;;25.50;73.70;;;;;;4940995;28;20047;-79
2022/09/02 12:31:44;;;;;;;3.08;0.50;;;25.70;72.70;;;;;;4934549;28;20043;-80
2022/09/02 12:34:19;;;;;;;8.18;0.55;;;25.70;70.10;;;;;;4923852;28;20050;-79
2022/09/02 12:36:50;;;;;;;2.00;0.45;;;25.60;70.70;;;;;;4952140;28;20401;-77
2022/09/02 12:39:22;;;;;;;2.20;0.55;;;25.50;68.70;;;;;;4953555;28;20086;-79
2022/09/02 12:42:06;;;;;;;2.50;0.30;;;25.30;69.60;;;;;;4949448;28;20043;-80
2022/09/02 12:44:53;;;;;;;2.65;0.60;;;25.40;71.40;;;;;;4954839;28;20055;-78
2022/09/02 12:47:18;;;;;;;6.40;0.80;;;25.50;70.50;;;;;;4926186;28;20098;-79
2022/09/02 12:50:10;;;;;;;5.55;0.65;;;25.30;69.50;;;;;;4951170;28;20051;-79
2022/09/02 12:52:44;;;;;;;11.70;0.75;;;25.30;70.20;;;;;;4935999;28;20039;-77
2022/09/02 12:55:23;;;;;;;3.13;0.47;;;25.20;70.30;;;;;;4920319;28;20070;-79
2022/09/02 12:57:53;;;;;;;3.75;0.40;;;25.20;69.60;;;;;;4951568;28;20039;-79
2022/09/02 13:00:57;;;;;;;2.13;0.70;;;25.00;69.00;;;;;;4952125;28;20146;-77
2022/09/02 13:03:37;;;;;;;2.10;0.38;;;25.10;71.10;;;;;;4948761;28;20791;-79
2022/09/02 13:06:25;;;;;;;2.17;0.63;;;25.20;70.20;;;;;;4937176;28;20516;-80
2022/09/02 13:09:06;;;;;;;3.10;0.40;;;25.30;71.60;;;;;;4947303;28;20039;-80
2022/09/02 13:12:02;;;;;;;2.65;0.35;;;25.40;71.00;;;;;;4939120;28;20102;-80
2022/09/02 13:14:50;;;;;;;3.15;0.52;;;25.30;68.90;;;;;;4920479;28;20047;-80